Time;durP1;ratioP1;P1;durP2;ratioP2;P2;SDS_P1;SDS_P2;PMS_P1;PMS_P2;Temp;Humidity;BMP_temperature;BMP_pressure;BME280_temperature;BME280_humidity;BME280_pressure;Samples;Min_cycle;Max_cycle;Signal;HPM_P1;HPM_P2
2024/04/12 00:02:20;;;;;;;3.50;3.17;;;13.40;30.70;;;;;;11149694;26;20359;-70
2024/04/12 00:07:28;;;;;;;3.77;3.30;;;13.30;30.60;;;;;;11140992;26;21410;-70
2024/04/12 00:12:33;;;;;;;3.40;3.10;;;13.20;30.50;;;;;;11162744;26;20652;-70
2024/04/12 00:17:38;;;;;;;3.33;3.03;;;13.00;30.30;;;;;;11143150;26;20301;-70
2024/04/12 00:22:48;;;;;;;3.20;2.80;;;12.80;30.20;;;;;;11151716;26;20259;-70
2024/04/12 00:27:54;;;;;;;3.23;2.77;;;12.70;31.20;;;;;;11160840;26;20306;-70
2024/04/12 00:33:00;;;;;;;4.97;3.47;;;12.70;30.90;;;;;;11148310;26;21090;-70
2024/04/12 00:38:12;;;;;;;5.53;3.17;;;12.70;31.00;;;;;;11164018;26;20745;-70
2024/04/12 00:43:19;;;;;;;3.20;2.90;;;12.60;31.50;;;;;;11184594;26;20263;-70
2024/04/12 00:48:26;;;;;;;4.47;2.90;;;12.50;31.10;;;;;;11165250;26;20337;-70
2024/04/12 00:53:34;;;;;;;4.00;3.03;;;12.40;31.20;;;;;;11170792;26;20259;-70
2024/04/12 00:58:41;;;;;;;3.20;2.90;;;12.40;32.00;;;;;;11177337;26;20601;-70
2024/04/12 01:03:53;;;;;;;3.07;2.87;;;12.40;31.40;;;;;;11166327;26;20298;-71
2024/04/12 01:09:10;;;;;;;3.27;2.93;;;12.40;31.60;;;;;;11177489;26;20267;-70
2024/04/12 01:14:16;;;;;;;4.53;2.87;;;12.50;32.30;;;;;;11170040;26;20260;-70
2024/04/12 01:19:21;;;;;;;3.17;2.87;;;12.50;31.40;;;;;;11180542;26;20371;-70
2024/04/12 01:24:29;;;;;;;3.00;2.80;;;12.50;31.40;;;;;;11180045;26;20732;-70
2024/04/12 01:29:37;;;;;;;3.27;2.97;;;12.50;31.80;;;;;;11162924;26;20299;-70
2024/04/12 01:34:50;;;;;;;3.53;2.47;;;12.50;31.80;;;;;;11142662;26;20384;-70
2024/04/12 01:40:01;;;;;;;3.30;3.00;;;12.50;31.30;;;;;;11165637;26;20262;-70
2024/04/12 01:45:16;;;;;;;3.10;2.90;;;12.50;31.20;;;;;;11164514;26;20297;-70
2024/04/12 01:50:24;;;;;;;2.87;2.57;;;12.50;31.80;;;;;;11169110;26;20402;-70
2024/04/12 01:55:32;;;;;;;3.30;3.00;;;12.50;31.10;;;;;;11149257;26;21078;-71
2024/04/12 02:00:40;;;;;;;3.03;2.63;;;12.50;31.20;;;;;;11157610;26;20259;-71
2024/04/12 02:05:49;;;;;;;3.37;3.07;;;12.50;31.60;;;;;;11168673;26;20288;-71
2024/04/12 02:10:54;;;;;;;3.40;3.10;;;12.40;31.10;;;;;;11192262;26;20293;-71
2024/04/12 02:16:02;;;;;;;3.70;3.17;;;12.40;30.90;;;;;;11171591;26;20949;-71
2024/04/12 02:21:10;;;;;;;3.27;2.97;;;12.20;31.40;;;;;;11186785;26;20286;-71
2024/04/12 02:26:15;;;;;;;4.20;3.80;;;12.00;31.00;;;;;;11164033;26;20309;-71
2024/04/12 02:31:23;;;;;;;4.00;3.70;;;11.90;31.20;;;;;;11172837;26;20588;-71
2024/04/12 02:36:30;;;;;;;4.23;3.83;;;11.70;31.80;;;;;;11174088;26;20259;-70
2024/04/12 02:41:37;;;;;;;4.00;3.60;;;11.50;31.80;;;;;;11157489;26;20293;-70
2024/04/12 02:46:45;;;;;;;3.47;3.17;;;11.30;31.70;;;;;;11163972;26;20302;-70
2024/04/12 02:51:53;;;;;;;3.10;2.90;;;11.30;32.50;;;;;;11194693;26;20262;-70
2024/04/12 02:56:58;;;;;;;3.97;3.57;;;11.20;32.00;;;;;;11170669;26;20263;-70
2024/04/12 03:02:07;;;;;;;4.07;3.77;;;11.30;32.30;;;;;;11171848;26;20306;-70
2024/04/12 03:07:15;;;;;;;4.17;3.40;;;11.20;32.60;;;;;;11167394;26;20263;-70
2024/04/12 03:12:21;;;;;;;4.00;3.57;;;11.10;32.20;;;;;;11170393;26;20360;-70
2024/04/12 03:17:29;;;;;;;4.73;3.60;;;11.10;32.30;;;;;;11178496;26;20262;-70
2024/04/12 03:22:34;;;;;;;3.90;3.53;;;11.10;32.90;;;;;;11166390;26;20847;-71
2024/04/12 03:27:40;;;;;;;4.30;3.80;;;11.10;32.30;;;;;;11167029;26;20312;-70
2024/04/12 03:32:47;;;;;;;4.07;3.47;;;11.10;32.30;;;;;;11178848;26;20312;-71
2024/04/12 03:38:24;;;;;;;3.57;3.27;;;11.00;33.00;;;;;;11183372;26;20872;-71
2024/04/12 03:43:21;;;;;;;3.97;3.67;;;11.00;32.50;;;;;;11188017;26;20264;-70
2024/04/12 03:48:33;;;;;;;4.10;3.70;;;11.00;32.70;;;;;;11197798;26;20965;-71
2024/04/12 03:53:38;;;;;;;3.13;2.83;;;11.00;33.30;;;;;;11166472;26;20266;-71
2024/04/12 03:58:45;;;;;;;3.70;3.40;;;11.00;32.70;;;;;;11178123;26;20261;-71
2024/04/12 04:03:57;;;;;;;3.53;3.23;;;11.00;32.70;;;;;;11178228;26;20293;-71
2024/04/12 04:09:05;;;;;;;3.97;3.67;;;11.00;33.10;;;;;;11180477;26;20258;-70
2024/04/12 04:14:13;;;;;;;3.20;3.00;;;11.10;32.60;;;;;;11188258;26;20964;-70
2024/04/12 04:19:30;;;;;;;3.83;2.97;;;11.10;32.40;;;;;;11177339;26;20259;-70
2024/04/12 04:24:37;;;;;;;3.30;3.10;;;11.00;33.10;;;;;;11167684;26;20866;-70
2024/04/12 04:29:43;;;;;;;4.40;4.00;;;11.00;32.70;;;;;;11204171;26;20296;-70
2024/04/12 04:34:54;;;;;;;4.63;4.03;;;10.90;32.30;;;;;;11174646;26;20270;-70
2024/04/12 04:40:00;;;;;;;4.10;3.73;;;10.90;33.00;;;;;;11197517;26;20890;-70
2024/04/12 04:45:07;;;;;;;3.73;3.43;;;10.70;32.40;;;;;;11154364;26;20781;-70
2024/04/12 04:50:17;;;;;;;18.47;12.10;;;10.70;32.60;;;;;;11177168;26;20255;-70
2024/04/12 04:55:23;;;;;;;10.67;8.47;;;10.60;33.00;;;;;;11170310;26;20258;-70
2024/04/12 05:00:40;;;;;;;6.10;5.50;;;10.40;32.60;;;;;;11160274;26;20255;-70
2024/04/12 05:05:49;;;;;;;4.70;4.37;;;10.30;32.90;;;;;;11175134;26;21015;-70
2024/04/12 05:10:58;;;;;;;4.80;4.30;;;10.30;33.80;;;;;;11180763;26;20270;-70
2024/04/12 05:16:09;;;;;;;4.20;3.80;;;10.30;34.00;;;;;;11165477;26;20266;-70
2024/04/12 05:21:17;;;;;;;4.17;3.87;;;10.30;33.30;;;;;;11148007;26;20262;-69
2024/04/12 05:26:23;;;;;;;4.87;4.10;;;10.30;34.10;;;;;;11163718;26;20262;-71
2024/04/12 05:31:30;;;;;;;4.83;4.43;;;10.30;33.80;;;;;;11154975;26;20839;-70
2024/04/12 05:36:37;;;;;;;5.43;4.10;;;10.40;34.10;;;;;;11147168;26;20380;-70
2024/04/12 05:41:44;;;;;;;5.67;5.17;;;10.50;34.70;;;;;;11151042;26;20314;-70
2024/04/12 05:46:49;;;;;;;5.20;4.80;;;10.50;34.30;;;;;;11140470;26;20293;-70
2024/04/12 05:52:01;;;;;;;5.30;4.90;;;10.50;34.30;;;;;;11163023;26;20309;-70
2024/04/12 05:57:06;;;;;;;4.87;4.47;;;10.60;35.50;;;;;;11150710;26;20319;-70
2024/04/12 06:02:15;;;;;;;6.93;5.43;;;10.60;34.70;;;;;;11111072;26;20306;-70
2024/04/12 06:07:26;;;;;;;5.70;5.20;;;10.60;35.10;;;;;;11156677;26;20788;-70
2024/04/12 06:12:33;;;;;;;5.80;5.37;;;10.70;36.20;;;;;;11158254;26;20274;-70
2024/04/12 06:17:40;;;;;;;6.37;5.30;;;10.80;35.70;;;;;;11162482;26;20825;-70
2024/04/12 06:22:49;;;;;;;7.53;5.47;;;10.90;35.90;;;;;;11162149;26;20262;-71
2024/04/12 06:27:55;;;;;;;6.70;6.00;;;11.00;37.10;;;;;;11156695;26;20259;-71
2024/04/12 06:33:00;;;;;;;6.13;5.63;;;11.20;36.30;;;;;;11185964;26;20258;-71
2024/04/12 06:38:12;;;;;;;7.10;5.80;;;11.30;36.60;;;;;;11142285;26;20283;-71
2024/04/12 06:43:20;;;;;;;7.30;6.60;;;11.50;37.70;;;;;;11128926;26;20285;-71
2024/04/12 06:48:26;;;;;;;7.20;6.27;;;11.60;36.90;;;;;;11156934;26;20271;-72
2024/04/12 06:53:34;;;;;;;7.30;6.70;;;11.80;36.80;;;;;;11137887;26;20258;-71
2024/04/12 06:58:40;;;;;;;6.83;6.23;;;12.00;37.80;;;;;;11157177;26;20947;-71
2024/04/12 07:03:46;;;;;;;7.60;6.63;;;12.20;36.90;;;;;;11178618;26;20254;-71
2024/04/12 07:08:54;;;;;;;8.03;7.30;;;12.40;37.00;;;;;;11170483;26;20325;-71
2024/04/12 07:14:00;;;;;;;7.67;6.90;;;12.60;37.70;;;;;;11171970;26;20369;-71
2024/04/12 07:19:08;;;;;;;7.77;7.00;;;12.70;36.90;;;;;;11163975;26;20301;-72
2024/04/12 07:24:16;;;;;;;7.80;7.20;;;12.90;37.00;;;;;;11157211;26;20256;-71
2024/04/12 07:29:21;;;;;;;7.97;7.27;;;13.00;37.90;;;;;;11150990;26;20275;-71
2024/04/12 07:34:30;;;;;;;8.63;7.83;;;13.20;37.10;;;;;;11176174;26;20262;-71
2024/04/12 07:39:40;;;;;;;9.07;8.00;;;13.40;37.40;;;;;;11167525;26;20312;-71
2024/04/12 07:44:45;;;;;;;8.80;8.10;;;13.60;38.60;;;;;;11165053;26;20302;-72
2024/04/12 07:49:54;;;;;;;9.33;8.53;;;13.80;37.60;;;;;;11164018;26;20310;-71
2024/04/12 07:55:02;;;;;;;8.53;7.83;;;14.10;37.80;;;;;;11154095;26;20262;-72
2024/04/12 08:00:09;;;;;;;8.93;8.20;;;14.30;38.30;;;;;;11174769;26;20321;-71
2024/04/12 08:05:16;;;;;;;9.97;8.97;;;14.60;37.70;;;;;;11142832;26;20733;-71
2024/04/12 08:10:29;;;;;;;9.83;8.83;;;14.80;37.70;;;;;;11156294;26;20305;-71
2024/04/12 08:15:40;;;;;;;9.30;8.50;;;15.10;38.10;;;;;;11161353;26;20295;-71
2024/04/12 08:20:46;;;;;;;10.00;9.10;;;15.40;37.70;;;;;;11148738;26;20317;-71
2024/04/12 08:25:58;;;;;;;10.97;9.87;;;15.70;37.30;;;;;;11153553;26;20306;-71
2024/04/12 08:31:05;;;;;;;10.70;9.80;;;16.00;36.90;;;;;;11154330;26;20362;-72
2024/04/12 08:36:14;;;;;;;9.27;8.47;;;16.30;36.60;;;;;;11158667;26;20298;-71
2024/04/12 08:41:24;;;;;;;9.80;9.00;;;16.50;36.30;;;;;;11163361;26;20301;-71
2024/04/12 08:46:33;;;;;;;9.23;8.53;;;16.80;36.70;;;;;;11154443;26;20261;-72
2024/04/12 08:51:39;;;;;;;8.60;7.90;;;17.00;36.30;;;;;;11147751;26;20259;-71
2024/04/12 08:56:47;;;;;;;8.83;8.03;;;17.20;35.90;;;;;;11147894;26;20308;-71
2024/04/12 09:01:53;;;;;;;8.57;7.87;;;17.50;35.60;;;;;;11157717;26;20447;-72
2024/04/12 09:06:58;;;;;;;8.77;7.90;;;17.70;35.50;;;;;;11149168;26;20264;-72
2024/04/12 09:12:12;;;;;;;8.30;7.60;;;17.90;34.70;;;;;;11150048;26;20289;-72
2024/04/12 09:17:24;;;;;;;8.20;7.40;;;18.10;34.80;;;;;;11151473;26;20289;-71
2024/04/12 09:22:30;;;;;;;8.10;7.50;;;18.30;35.00;;;;;;11141286;26;20260;-71
2024/04/12 09:27:43;;;;;;;7.67;6.93;;;18.50;35.20;;;;;;11142374;26;20363;-71
2024/04/12 09:33:00;;;;;;;7.27;6.50;;;18.70;35.20;;;;;;11154613;26;20297;-72
2024/04/12 09:38:16;;;;;;;7.03;6.40;;;19.00;34.50;;;;;;11143060;26;20258;-71
2024/04/12 09:43:36;;;;;;;8.60;7.80;;;19.30;34.40;;;;;;11137301;26;20737;-72
2024/04/12 10:37:28;;;;;;;6.80;6.20;;;21.50;30.10;;;;;;11156551;26;20274;-71
2024/04/12 10:42:34;;;;;;;5.87;5.37;;;21.50;30.60;;;;;;11151582;26;20642;-72
2024/04/12 10:47:44;;;;;;;6.20;5.60;;;21.60;30.60;;;;;;11148928;26;20681;-72
2024/04/12 10:52:51;;;;;;;5.80;5.37;;;21.70;30.00;;;;;;11156499;26;20344;-72
2024/04/12 10:57:56;;;;;;;6.20;5.60;;;21.80;30.00;;;;;;11149913;26;20254;-72
2024/04/12 11:03:17;;;;;;;6.10;5.60;;;21.90;30.40;;;;;;11154391;26;20961;-72
2024/04/12 11:08:28;;;;;;;6.17;5.67;;;22.00;29.70;;;;;;11135913;26;20351;-72
2024/04/12 11:13:35;;;;;;;6.37;5.77;;;22.20;29.80;;;;;;11137011;26;20799;-72
2024/04/12 11:34:58;;;;;;;4.93;4.53;;;22.30;29.30;;;;;;11119614;26;20258;-72
2024/04/12 11:40:04;;;;;;;6.33;5.73;;;22.40;28.40;;;;;;11136665;26;20290;-71
2024/04/12 11:45:14;;;;;;;6.03;5.53;;;22.50;28.90;;;;;;11132084;26;20308;-72
2024/04/12 11:50:22;;;;;;;6.93;6.40;;;22.50;28.70;;;;;;11113091;26;20400;-72
2024/04/12 11:55:27;;;;;;;6.27;5.67;;;22.40;27.40;;;;;;11115595;26;20294;-72
2024/04/12 12:00:34;;;;;;;6.07;5.57;;;22.40;28.60;;;;;;11132364;26;20325;-72
2024/04/12 12:05:46;;;;;;;5.53;5.03;;;22.40;28.70;;;;;;11111423;26;20258;-72
2024/04/12 12:10:51;;;;;;;6.00;5.60;;;22.60;28.20;;;;;;11120423;26;20337;-72
2024/04/12 12:15:58;;;;;;;6.20;5.60;;;22.70;28.40;;;;;;11141678;26;20702;-72
2024/04/12 12:21:06;;;;;;;6.07;5.07;;;22.80;28.30;;;;;;11152460;26;20633;-72
2024/04/12 12:26:14;;;;;;;5.80;5.20;;;23.00;27.80;;;;;;11143396;26;20263;-71
2024/04/12 12:31:21;;;;;;;6.83;5.60;;;23.10;28.40;;;;;;11151068;26;20326;-72
2024/04/12 12:36:29;;;;;;;6.43;5.80;;;23.20;28.10;;;;;;11154633;26;20273;-72
2024/04/12 12:41:35;;;;;;;6.00;5.40;;;23.20;27.50;;;;;;11149956;26;20289;-72
2024/04/12 12:46:40;;;;;;;5.70;5.10;;;23.20;27.50;;;;;;11155553;26;20255;-72
2024/04/12 12:51:48;;;;;;;5.37;4.97;;;23.20;27.50;;;;;;11156530;26;20258;-72
2024/04/12 12:56:57;;;;;;;5.93;5.40;;;23.20;27.50;;;;;;11158911;26;20289;-72
2024/04/12 13:02:03;;;;;;;5.63;4.43;;;23.20;27.50;;;;;;11150773;26;20267;-72
2024/04/12 13:07:11;;;;;;;5.63;5.13;;;23.20;27.50;;;;;;11149064;26;20902;-71
2024/04/12 13:12:16;;;;;;;5.47;4.70;;;23.20;27.10;;;;;;11141490;26;20262;-72
2024/04/12 13:17:23;;;;;;;6.03;5.53;;;23.20;27.50;;;;;;11148367;26;20297;-72
2024/04/12 13:22:32;;;;;;;5.47;5.07;;;23.20;27.50;;;;;;11143661;26;20292;-72
2024/04/12 13:27:37;;;;;;;5.23;4.80;;;23.20;26.40;;;;;;11145770;26;20298;-71
2024/04/12 13:32:42;;;;;;;5.70;5.20;;;23.20;27.50;;;;;;11150752;26;20662;-72
2024/04/12 13:37:55;;;;;;;5.70;5.20;;;23.10;27.40;;;;;;11152453;26;20344;-72
2024/04/12 13:43:00;;;;;;;5.97;4.53;;;23.20;26.90;;;;;;11151433;26;20254;-72
2024/04/12 13:53:36;;;;;;;4.90;4.50;;;23.20;27.50;;;;;;11153725;26;20610;-72
2024/04/12 13:58:41;;;;;;;6.60;5.23;;;23.20;27.00;;;;;;11145265;26;20275;-72
2024/04/12 14:03:47;;;;;;;4.87;4.50;;;23.30;27.20;;;;;;11142034;26;20664;-71
2024/04/12 14:08:55;;;;;;;5.80;5.30;;;23.40;27.10;;;;;;11145273;26;20258;-72
2024/04/12 14:14:01;;;;;;;5.40;4.90;;;23.40;26.20;;;;;;11131890;26;20260;-72
2024/04/12 14:19:12;;;;;;;5.20;4.80;;;23.40;26.60;;;;;;11122384;26;20874;-71
2024/04/12 14:29:41;;;;;;;6.13;5.53;;;23.40;26.30;;;;;;11167727;26;20362;-72
2024/04/12 14:34:49;;;;;;;5.97;5.40;;;23.40;26.40;;;;;;11153842;26;20267;-72
2024/04/12 14:40:18;;;;;;;5.43;4.93;;;23.40;26.00;;;;;;11119231;26;20287;-71
2024/04/12 14:45:23;;;;;;;5.13;4.47;;;23.40;25.40;;;;;;11156540;26;20778;-71
2024/04/12 14:50:31;;;;;;;5.03;4.63;;;23.30;26.30;;;;;;11145989;26;20267;-71
2024/04/12 14:55:42;;;;;;;4.47;4.07;;;23.20;26.30;;;;;;11155533;26;20256;-71
2024/04/12 15:00:48;;;;;;;5.17;4.43;;;23.20;26.10;;;;;;11159909;26;20306;-71
2024/04/12 15:48:49;;;;;;;4.70;4.30;;;23.60;25.00;;;;;;11139675;26;20263;-71
2024/04/12 15:53:58;;;;;;;4.27;3.47;;;23.70;25.30;;;;;;11127992;26;20302;-71
2024/04/12 16:15:11;;;;;;;2.77;2.20;;;23.80;24.50;;;;;;11133571;26;20305;-71
2024/04/12 16:20:16;;;;;;;2.87;2.40;;;23.80;23.10;;;;;;11148690;26;20258;-72
2024/04/12 16:25:21;;;;;;;3.50;2.17;;;23.70;24.00;;;;;;11152297;26;20700;-72
2024/04/12 16:30:29;;;;;;;2.17;2.07;;;23.70;23.10;;;;;;11150392;26;20307;-72
2024/04/12 16:35:34;;;;;;;1.90;1.70;;;23.60;22.30;;;;;;11147796;26;20451;-72
2024/04/12 16:40:39;;;;;;;2.60;2.10;;;23.60;23.30;;;;;;11150017;26;20346;-72
2024/04/12 16:45:47;;;;;;;2.30;2.10;;;23.70;23.40;;;;;;11150333;26;20813;-72
2024/04/12 16:50:52;;;;;;;2.57;2.00;;;23.70;22.60;;;;;;11149097;26;20263;-72
2024/04/12 16:55:57;;;;;;;2.20;1.77;;;23.70;23.40;;;;;;11153837;26;20292;-72
2024/04/12 17:01:06;;;;;;;2.57;1.67;;;23.70;23.50;;;;;;11149051;26;21406;-72
2024/04/12 17:06:11;;;;;;;2.40;2.13;;;23.80;23.60;;;;;;11127147;26;20319;-72
2024/04/12 17:11:16;;;;;;;3.03;1.80;;;23.80;24.00;;;;;;11150384;26;20263;-72
2024/04/12 17:16:24;;;;;;;2.73;1.83;;;23.80;24.20;;;;;;11148713;26;20338;-72
2024/04/12 17:21:31;;;;;;;4.17;2.00;;;23.80;24.00;;;;;;11144267;26;20325;-72
2024/04/12 17:26:36;;;;;;;2.23;1.90;;;23.80;24.40;;;;;;11141915;26;20783;-72
2024/04/12 17:31:44;;;;;;;2.80;1.77;;;23.80;23.70;;;;;;11138209;26;20254;-72
2024/04/12 17:36:50;;;;;;;2.00;1.80;;;23.70;23.60;;;;;;11150872;26;20263;-72
2024/04/12 17:41:56;;;;;;;4.10;1.77;;;23.60;24.40;;;;;;11149451;26;20264;-72
2024/04/12 17:47:04;;;;;;;5.83;2.30;;;23.60;24.70;;;;;;11138373;26;20303;-72
2024/04/12 17:52:09;;;;;;;3.97;2.60;;;23.50;24.50;;;;;;11128925;26;20377;-72
2024/04/12 17:57:16;;;;;;;3.40;2.20;;;23.40;24.40;;;;;;11134132;26;20297;-72
2024/04/12 18:02:25;;;;;;;3.30;2.20;;;23.30;24.40;;;;;;11131611;26;20306;-72
2024/04/12 18:07:30;;;;;;;3.93;1.77;;;23.20;24.30;;;;;;11125929;26;20301;-72
2024/04/12 18:12:36;;;;;;;1.50;1.40;;;23.00;24.60;;;;;;11127845;26;20250;-72
2024/04/12 18:17:44;;;;;;;3.20;1.70;;;22.80;25.00;;;;;;11130387;26;20769;-72
2024/04/12 18:22:49;;;;;;;1.77;1.67;;;22.60;24.50;;;;;;11129641;26;20302;-72
2024/04/12 18:27:54;;;;;;;2.63;2.13;;;22.50;24.80;;;;;;11144468;26;20362;-72
2024/04/12 18:33:02;;;;;;;12.43;11.27;;;22.40;24.80;;;;;;11126958;26;20642;-72
2024/04/12 18:48:51;;;;;;;7.77;6.70;;;21.90;24.80;;;;;;11139888;26;20255;-72
2024/04/12 18:53:56;;;;;;;12.27;9.17;;;21.80;25.10;;;;;;11133521;26;20343;-72
2024/04/12 18:59:02;;;;;;;7.20;5.03;;;21.60;25.10;;;;;;11097270;26;20255;-72
2024/04/12 19:04:12;;;;;;;15.30;11.93;;;21.50;25.20;;;;;;11140188;26;20263;-72
2024/04/12 19:09:19;;;;;;;21.70;14.27;;;21.30;25.00;;;;;;11127578;26;20843;-72
2024/04/12 19:14:25;;;;;;;17.60;14.43;;;21.00;25.00;;;;;;11139115;26;20259;-72
2024/04/12 19:19:33;;;;;;;13.97;11.20;;;20.70;25.30;;;;;;11135896;26;20448;-72
2024/04/12 19:24:38;;;;;;;12.73;10.10;;;20.30;25.50;;;;;;11141684;26;20306;-72
2024/04/12 19:29:43;;;;;;;9.17;8.13;;;19.90;25.30;;;;;;11146949;26;20299;-72
2024/04/12 19:34:51;;;;;;;7.23;6.10;;;19.60;25.60;;;;;;11143404;26;20266;-72
2024/04/12 19:39:56;;;;;;;6.43;5.20;;;19.30;26.10;;;;;;11138129;26;20255;-72
2024/04/12 19:45:01;;;;;;;6.80;6.10;;;19.10;26.10;;;;;;11144160;26;20263;-72
2024/04/12 19:50:12;;;;;;;5.60;5.07;;;18.90;26.20;;;;;;11138427;26;20266;-72
2024/04/12 19:55:17;;;;;;;5.10;4.70;;;18.70;26.80;;;;;;11134074;26;20831;-72
2024/04/12 20:00:22;;;;;;;7.20;6.50;;;18.40;26.60;;;;;;11134585;26;21755;-72
2024/04/12 20:05:30;;;;;;;5.80;5.10;;;18.30;26.90;;;;;;11114826;26;20265;-72
2024/04/12 20:10:35;;;;;;;4.70;4.30;;;18.20;27.50;;;;;;11133706;26;20954;-72
2024/04/12 20:15:40;;;;;;;8.70;6.37;;;18.10;27.30;;;;;;11135045;26;20263;-71
2024/04/12 20:20:56;;;;;;;5.53;5.03;;;18.10;27.20;;;;;;11131419;26;20343;-72
2024/04/12 20:26:03;;;;;;;5.13;4.17;;;18.10;27.90;;;;;;11127481;26;20254;-72
2024/04/12 20:31:23;;;;;;;6.73;3.67;;;18.10;27.50;;;;;;11121672;26;20256;-72
2024/04/12 20:36:40;;;;;;;3.90;3.60;;;18.10;27.50;;;;;;11145521;26;20249;-72
2024/04/12 20:41:46;;;;;;;4.20;3.80;;;18.10;27.90;;;;;;11143254;26;20254;-72
2024/04/12 20:46:53;;;;;;;5.40;4.67;;;18.10;27.50;;;;;;11135926;26;20310;-72
2024/04/12 20:52:06;;;;;;;5.30;4.80;;;18.00;27.50;;;;;;11136550;26;20932;-72
2024/04/12 20:57:11;;;;;;;5.00;4.50;;;17.90;27.70;;;;;;11140445;26;21538;-72
2024/04/12 21:02:18;;;;;;;5.93;4.90;;;17.80;27.30;;;;;;11134902;26;20301;-72
2024/04/12 21:07:25;;;;;;;4.97;4.50;;;17.60;27.50;;;;;;11136737;26;20334;-71
2024/04/12 21:12:31;;;;;;;8.50;5.07;;;17.40;28.10;;;;;;11130595;26;20268;-71
2024/04/12 21:17:37;;;;;;;6.30;4.30;;;17.20;27.80;;;;;;11142458;26;20255;-71
2024/04/12 21:22:45;;;;;;;5.27;4.13;;;17.10;28.10;;;;;;11137455;26;20259;-72
2024/04/12 21:27:50;;;;;;;5.43;4.63;;;17.10;28.50;;;;;;11135727;26;20274;-72
2024/04/12 21:32:56;;;;;;;6.03;4.87;;;17.00;28.20;;;;;;11111164;26;22154;-72
2024/04/12 21:38:04;;;;;;;4.90;4.50;;;17.00;28.40;;;;;;11144868;26;20806;-71
2024/04/12 21:43:09;;;;;;;6.13;4.97;;;16.90;28.60;;;;;;11141765;26;20730;-72
2024/04/12 21:48:14;;;;;;;5.30;4.80;;;16.90;28.30;;;;;;11141745;26;20309;-71
2024/04/12 21:53:22;;;;;;;5.70;5.20;;;16.80;28.50;;;;;;11141424;26;20758;-72
2024/04/12 21:58:27;;;;;;;5.83;5.27;;;16.80;28.90;;;;;;11146445;26;20266;-72
2024/04/12 22:03:32;;;;;;;6.23;5.20;;;16.80;28.60;;;;;;11143186;26;20293;-72
2024/04/12 22:08:41;;;;;;;5.73;4.97;;;16.70;28.60;;;;;;11147398;26;20262;-71
2024/04/12 22:13:46;;;;;;;5.57;4.93;;;16.60;29.20;;;;;;11140335;26;20262;-72
2024/04/12 22:18:51;;;;;;;5.50;5.00;;;16.60;28.70;;;;;;11152544;26;20310;-72
2024/04/12 22:23:58;;;;;;;6.90;4.67;;;16.60;28.90;;;;;;11151405;26;20257;-72
2024/04/12 22:29:03;;;;;;;6.50;4.60;;;16.40;29.20;;;;;;11148811;26;20367;-71
2024/04/12 22:34:08;;;;;;;5.33;4.83;;;16.30;29.00;;;;;;11153054;26;20293;-72
2024/04/12 22:39:16;;;;;;;5.77;5.27;;;16.10;29.00;;;;;;11157006;26;20306;-72
2024/04/12 22:44:21;;;;;;;5.47;4.97;;;16.00;29.60;;;;;;11159764;26;20329;-71
2024/04/12 22:49:27;;;;;;;5.10;4.70;;;15.80;29.10;;;;;;11152349;26;20298;-72
2024/04/12 22:54:34;;;;;;;5.33;4.90;;;15.70;29.60;;;;;;11157383;26;20260;-72
2024/04/12 22:59:40;;;;;;;5.63;4.30;;;15.60;29.90;;;;;;11145956;26;20270;-72
2024/04/12 23:04:45;;;;;;;6.63;5.00;;;15.60;29.50;;;;;;11161239;26;20402;-71
2024/04/12 23:09:52;;;;;;;5.57;5.07;;;15.50;29.60;;;;;;11157824;26;20266;-71
2024/04/12 23:14:57;;;;;;;5.00;4.70;;;15.50;30.10;;;;;;11153436;26;20664;-72
2024/04/12 23:20:03;;;;;;;5.07;4.57;;;15.40;29.50;;;;;;11155425;26;20259;-72
2024/04/12 23:25:11;;;;;;;4.53;4.23;;;15.20;29.80;;;;;;11138651;26;20305;-71
2024/04/12 23:30:16;;;;;;;5.50;5.10;;;15.00;30.50;;;;;;11145880;26;20259;-71
2024/04/12 23:35:21;;;;;;;6.97;4.87;;;15.00;30.10;;;;;;11154288;26;21097;-72
2024/04/12 23:40:28;;;;;;;5.93;5.27;;;15.00;30.10;;;;;;11156748;26;20259;-72
2024/04/12 23:45:34;;;;;;;5.40;5.00;;;14.90;31.00;;;;;;11156653;26;20688;-71
2024/04/12 23:50:39;;;;;;;5.33;4.83;;;14.80;30.40;;;;;;11156812;26;20318;-71
2024/04/12 23:55:47;;;;;;;5.63;5.07;;;14.80;30.50;;;;;;11156455;26;20302;-71
